createdAt,value
2019-05-30T00:01:44.693Z,70.34
2019-05-30T00:03:52.242Z,70.94
2019-05-30T00:12:47.976Z,72.06
2019-05-30T00:15:01.292Z,73.73
2019-05-30T00:17:08.937Z,72.70
2019-05-30T00:19:16.533Z,73.39
2019-05-30T00:21:24.201Z,73.50
2019-05-30T00:23:31.958Z,73.84
2019-05-30T00:25:39.821Z,74.56
2019-05-30T00:27:47.650Z,74.33
2019-05-30T00:29:55.286Z,74.00
2019-05-30T00:32:03.964Z,73.61
2019-05-30T00:34:12.472Z,73.03
2019-05-30T00:36:20.389Z,73.28
2019-05-30T00:38:27.982Z,74.16
2019-05-30T00:40:35.532Z,74.83
2019-05-30T00:42:43.182Z,73.39
2019-05-30T00:44:50.869Z,72.97
2019-05-30T00:46:58.467Z,72.00
2019-05-30T00:49:06.955Z,73.74
2019-05-30T00:51:14.304Z,72.84
2019-05-30T00:53:21.698Z,73.68
2019-05-30T00:55:29.147Z,73.79
2019-05-30T00:57:36.541Z,73.98
2019-05-30T00:59:43.955Z,75.42
2019-05-30T01:01:51.439Z,75.81
2019-05-30T01:03:59.006Z,75.88
2019-05-30T01:06:07.273Z,76.61
2019-05-30T01:08:14.839Z,76.76
2019-05-30T01:10:22.317Z,77.43
2019-05-30T01:12:29.827Z,77.77
2019-05-30T01:14:37.196Z,77.42
2019-05-30T01:16:44.771Z,75.99
2019-05-30T01:18:52.189Z,75.85
2019-05-30T01:20:59.616Z,76.09
2019-05-30T01:23:07.509Z,75.34
2019-05-30T01:25:16.585Z,74.36
2019-05-30T01:27:24.050Z,74.41
2019-05-30T01:29:31.543Z,74.26
2019-05-30T01:31:38.939Z,73.63
2019-05-30T01:33:46.279Z,74.06
2019-05-30T01:35:53.679Z,75.10
2019-05-30T01:38:01.844Z,75.01
2019-05-30T01:40:10.062Z,74.24
2019-05-30T01:42:17.522Z,76.00
2019-05-30T01:44:24.973Z,74.40
2019-05-30T01:46:32.966Z,74.33
2019-05-30T01:48:40.326Z,74.09
2019-05-30T01:50:47.795Z,74.76
2019-05-30T01:52:55.284Z,73.96
2019-05-30T01:55:02.829Z,74.39
2019-05-30T01:57:10.594Z,74.38
2019-05-30T01:59:18.012Z,73.63
2019-05-30T02:01:25.856Z,75.29
2019-05-30T02:03:33.516Z,76.33
2019-05-30T02:05:41.206Z,75.62
2019-05-30T02:07:48.584Z,75.70
2019-05-30T02:09:56.028Z,77.16
2019-05-30T02:12:03.698Z,76.92
2019-05-30T02:14:11.175Z,77.81
2019-05-30T02:16:18.731Z,78.74
2019-05-30T02:18:26.048Z,79.98
2019-05-30T02:20:33.426Z,80.58
2019-05-30T02:22:40.882Z,80.13
2019-05-30T02:24:48.324Z,80.99
2019-05-30T02:26:55.730Z,80.84
2019-05-30T02:29:04.178Z,80.47
2019-05-30T02:31:12.405Z,80.07
2019-05-30T02:33:19.965Z,81.18
2019-05-30T02:35:27.469Z,81.62
2019-05-30T02:37:34.925Z,81.29
2019-05-30T02:39:42.339Z,81.68
2019-05-30T02:41:49.703Z,81.32
2019-05-30T02:43:57.088Z,81.90
2019-05-30T02:46:06.371Z,82.25
2019-05-30T02:48:14.489Z,82.68
2019-05-30T02:50:22.192Z,82.17
2019-05-30T02:52:29.664Z,82.36
2019-05-30T02:54:37.114Z,82.73
2019-05-30T02:56:44.489Z,83.67
2019-05-30T02:58:51.882Z,84.03
2019-05-30T03:00:59.338Z,83.31
2019-05-30T03:03:09.286Z,83.81
2019-05-30T03:05:17.150Z,84.05
2019-05-30T03:07:24.565Z,84.17
2019-05-30T03:09:32.173Z,84.29
2019-05-30T03:11:39.547Z,84.13
2019-05-30T03:13:47.555Z,84.97
2019-05-30T03:15:55.152Z,85.51
2019-05-30T03:18:04.653Z,85.45
2019-05-30T03:20:21.958Z,84.71
2019-05-30T03:22:22.229Z,83.59
2019-05-30T03:24:29.841Z,84.46
2019-05-30T03:26:37.355Z,84.10
2019-05-30T03:28:44.836Z,83.12
2019-05-30T03:30:52.453Z,83.11
2019-05-30T03:33:06.828Z,83.87
2019-05-30T03:35:21.604Z,83.85
2019-05-30T03:37:28.690Z,84.33
2019-05-30T03:39:28.614Z,84.33
2019-05-30T03:41:36.059Z,83.75
2019-05-30T03:43:43.566Z,84.60
2019-05-30T03:45:51.667Z,85.00
2019-05-30T03:48:06.540Z,85.21
2019-05-30T03:50:18.004Z,85.14
2019-05-30T03:52:27.633Z,84.70
2019-05-30T03:54:36.602Z,84.06
2019-05-30T03:56:50.726Z,84.98
2019-05-30T03:59:32.294Z,85.27
2019-05-30T04:01:57.467Z,84.77
2019-05-30T04:04:19.147Z,85.11
2019-05-30T04:06:33.704Z,84.70
2019-05-30T04:08:44.770Z,85.36
2019-05-30T04:10:58.683Z,84.12
2019-05-30T04:13:46.281Z,83.84
2019-05-30T04:15:53.785Z,83.66
2019-05-30T04:18:01.184Z,84.70
2019-05-30T04:20:09.854Z,83.93
2019-05-30T04:22:19.593Z,82.84
2019-05-30T04:24:28.223Z,83.03
2019-05-30T04:26:35.601Z,80.19
2019-05-30T04:28:43.017Z,79.06
2019-05-30T04:30:50.398Z,79.27
2019-05-30T04:33:16.231Z,79.00
2019-05-30T04:35:08.045Z,81.16
2019-05-30T04:37:17.195Z,81.53
2019-05-30T04:39:24.805Z,80.44
2019-05-30T04:41:32.273Z,79.97
2019-05-30T04:43:39.688Z,78.84
2019-05-30T04:45:47.135Z,77.89
2019-05-30T04:47:54.535Z,78.95
2019-05-30T04:50:02.214Z,80.71
2019-05-30T04:52:13.931Z,76.35
2019-05-30T04:54:19.657Z,78.17
2019-05-30T04:56:28.276Z,77.39
2019-05-30T04:58:41.643Z,76.36
2019-05-30T05:00:45.819Z,76.83
2019-05-30T05:02:54.931Z,75.07
2019-05-30T05:05:02.858Z,74.74
2019-05-30T05:07:11.503Z,73.96
2019-05-30T05:09:20.300Z,72.51
2019-05-30T05:11:28.069Z,72.81
2019-05-30T05:13:35.665Z,72.25
2019-05-30T05:15:43.274Z,72.20
2019-05-30T05:17:50.968Z,73.00
2019-05-30T05:19:58.565Z,72.18
2019-05-30T05:22:06.055Z,72.19
2019-05-30T05:24:13.509Z,71.27
2019-05-30T05:26:21.631Z,70.96
2019-05-30T05:28:29.217Z,71.44
2019-05-30T05:30:37.012Z,71.27
2019-05-30T05:32:44.946Z,72.17
2019-05-30T05:34:52.594Z,71.23
2019-05-30T05:37:00.154Z,71.40
2019-05-30T05:39:09.211Z,71.66
2019-05-30T05:41:18.165Z,71.26
2019-05-30T05:43:25.988Z,71.14
2019-05-30T05:45:33.887Z,69.70
2019-05-30T05:47:42.296Z,70.91
2019-05-30T05:49:49.913Z,70.08
2019-05-30T05:51:57.410Z,70.29
2019-05-30T05:54:05.553Z,70.03
2019-05-30T05:56:12.983Z,69.86
2019-05-30T05:58:21.142Z,69.15
2019-05-30T06:00:29.609Z,70.14
2019-05-30T06:02:37.423Z,69.55
2019-05-30T06:04:45.154Z,71.19
2019-05-30T06:06:52.897Z,70.34
2019-05-30T06:09:00.626Z,70.11
2019-05-30T06:11:08.486Z,68.80
2019-05-30T06:13:16.617Z,69.29
2019-05-30T06:15:24.984Z,70.14
2019-05-30T06:17:32.635Z,68.94
2019-05-30T06:19:46.364Z,69.40
2019-05-30T06:21:54.008Z,68.97
2019-05-30T06:23:58.551Z,68.93
2019-05-30T06:26:06.830Z,69.15
2019-05-30T06:28:14.278Z,68.25
2019-05-30T06:30:22.616Z,69.21
2019-05-30T06:32:30.340Z,69.38
2019-05-30T06:34:39.637Z,65.87
2019-05-30T06:36:46.917Z,67.01
2019-05-30T06:38:54.372Z,64.09
2019-05-30T06:41:01.855Z,64.96
2019-05-30T06:43:09.207Z,65.30
2019-05-30T06:45:16.857Z,64.70
2019-05-30T06:47:24.404Z,66.86
2019-05-30T06:49:31.907Z,65.58
2019-05-30T06:51:39.318Z,66.80
2019-05-30T06:53:46.839Z,65.82
2019-05-30T06:55:54.355Z,65.88
2019-05-30T06:58:01.798Z,66.68
2019-05-30T07:00:10.484Z,64.88
2019-05-30T07:02:18.134Z,66.15
2019-05-30T07:04:27.373Z,64.69
2019-05-30T07:06:35.478Z,66.11
2019-05-30T07:08:43.148Z,66.68
2019-05-30T07:10:51.478Z,66.04
2019-05-30T07:12:58.882Z,66.19
2019-05-30T07:15:07.927Z,65.09
2019-05-30T07:17:15.332Z,65.94
2019-05-30T07:19:23.347Z,63.84
2019-05-30T07:21:31.769Z,63.31
2019-05-30T07:23:39.913Z,62.75
2019-05-30T07:25:47.629Z,63.15
2019-05-30T07:27:54.956Z,62.26
2019-05-30T07:30:02.383Z,63.62
2019-05-30T07:32:13.314Z,63.56
2019-05-30T07:34:19.784Z,62.49
2019-05-30T07:36:28.213Z,60.68
2019-05-30T07:38:35.705Z,62.64
2019-05-30T07:40:43.514Z,62.24
2019-05-30T07:42:50.986Z,61.07
2019-05-30T07:44:58.488Z,58.98
2019-05-30T07:47:06.076Z,61.84
2019-05-30T07:49:13.499Z,62.71
2019-05-30T07:51:24.328Z,61.75
2019-05-30T07:53:30.694Z,56.46
2019-05-30T07:55:39.112Z,59.17
2019-05-30T07:57:46.854Z,61.21
2019-05-30T07:59:54.326Z,62.67
2019-05-30T08:02:01.947Z,61.89
2019-05-30T08:04:09.423Z,60.94
2019-05-30T08:06:16.947Z,60.29
2019-05-30T08:08:24.463Z,60.13
2019-05-30T08:10:32.088Z,60.39
2019-05-30T08:12:39.679Z,61.60
2019-05-30T08:14:47.144Z,56.73
2019-05-30T08:16:55.487Z,59.17
2019-05-30T08:19:03.338Z,58.63
2019-05-30T08:21:10.937Z,60.09
2019-05-30T08:23:18.366Z,59.29
2019-05-30T08:25:25.825Z,59.16
2019-05-30T08:27:34.331Z,57.86
2019-05-30T08:29:41.783Z,57.44
2019-05-30T08:31:49.795Z,55.41
2019-05-30T08:33:57.324Z,56.29
2019-05-30T08:36:06.000Z,58.25
2019-05-30T08:38:13.603Z,57.74
2019-05-30T08:40:21.455Z,57.63
2019-05-30T08:42:29.519Z,58.47
2019-05-30T08:44:38.013Z,56.84
2019-05-30T08:46:45.633Z,56.51
2019-05-30T08:48:53.181Z,56.77
2019-05-30T08:51:00.641Z,55.95
2019-05-30T08:53:08.217Z,57.12
2019-05-30T08:55:16.753Z,55.05
2019-05-30T08:57:24.283Z,55.55
2019-05-30T08:59:32.371Z,53.45
2019-05-30T09:01:40.565Z,56.67
2019-05-30T09:03:49.247Z,54.87
2019-05-30T09:06:03.520Z,53.28
2019-05-30T09:08:06.128Z,54.75
2019-05-30T09:10:13.741Z,54.07
2019-05-30T09:12:21.312Z,55.22
2019-05-30T09:14:28.814Z,53.74
2019-05-30T09:16:36.371Z,50.94
2019-05-30T09:18:45.183Z,53.13
2019-05-30T09:20:52.814Z,51.59
2019-05-30T09:23:00.243Z,50.95
2019-05-30T09:25:09.578Z,52.68
2019-05-30T09:27:17.098Z,53.24
2019-05-30T09:29:24.816Z,52.79
2019-05-30T09:31:32.990Z,54.64
2019-05-30T09:33:40.960Z,52.68
2019-05-30T09:35:49.063Z,51.59
2019-05-30T09:37:56.596Z,52.02
2019-05-30T09:40:04.772Z,49.04
2019-05-30T09:42:12.565Z,48.67
2019-05-30T09:44:20.281Z,49.93
2019-05-30T09:46:27.851Z,52.14
2019-05-30T09:48:36.027Z,51.32
2019-05-30T09:50:45.121Z,51.86
2019-05-30T09:52:52.786Z,51.01
2019-05-30T09:55:00.271Z,51.20
2019-05-30T09:57:07.759Z,49.52
2019-05-30T09:59:15.545Z,50.45
2019-05-30T10:01:23.270Z,47.49
2019-05-30T10:03:30.869Z,46.82
2019-05-30T10:05:38.453Z,50.12
2019-05-30T10:07:47.437Z,47.00
2019-05-30T10:09:55.438Z,47.11
2019-05-30T10:12:03.298Z,48.08
2019-05-30T10:14:11.237Z,49.65
2019-05-30T10:16:18.930Z,47.83
2019-05-30T10:18:26.424Z,47.78
2019-05-30T10:20:34.050Z,48.14
2019-05-30T10:22:41.594Z,45.34
2019-05-30T10:24:49.139Z,47.00
2019-05-30T10:26:57.371Z,47.86
2019-05-30T10:29:05.032Z,47.11
2019-05-30T10:31:12.582Z,47.68
2019-05-30T10:33:20.369Z,44.79
2019-05-30T10:35:29.939Z,46.51
2019-05-30T10:37:37.283Z,47.17
2019-05-30T10:39:46.001Z,47.32
2019-05-30T10:41:54.023Z,44.24
2019-05-30T10:44:01.522Z,44.12
2019-05-30T10:46:08.951Z,44.97
2019-05-30T10:48:16.449Z,44.92
2019-05-30T10:50:24.535Z,45.26
2019-05-30T10:52:31.977Z,44.74
2019-05-30T10:54:39.413Z,43.90
2019-05-30T10:56:48.393Z,44.30
2019-05-30T10:58:57.232Z,43.08
2019-05-30T11:01:05.217Z,42.99
2019-05-30T11:03:12.788Z,44.39
2019-05-30T11:05:21.994Z,45.03
2019-05-30T11:08:01.971Z,44.40
2019-05-30T11:10:11.798Z,46.46
2019-05-30T11:12:19.321Z,44.30
2019-05-30T11:14:26.827Z,44.04
2019-05-30T11:16:34.370Z,41.76
2019-05-30T11:18:41.877Z,39.30
2019-05-30T11:20:49.969Z,39.95
2019-05-30T11:22:58.469Z,41.75
2019-05-30T11:25:06.531Z,40.09
2019-05-30T11:27:13.995Z,39.29
2019-05-30T11:29:21.418Z,43.79
2019-05-30T11:31:28.967Z,43.05
2019-05-30T11:33:36.488Z,41.88
2019-05-30T11:35:44.011Z,42.77
2019-05-30T11:37:52.985Z,38.42
2019-05-30T11:40:00.784Z,38.88
2019-05-30T11:42:08.405Z,40.94
2019-05-30T11:44:15.910Z,41.56
2019-05-30T11:46:23.569Z,40.34
2019-05-30T11:48:31.047Z,42.40
2019-05-30T11:50:38.611Z,42.20
2019-05-30T11:52:46.135Z,40.81
2019-05-30T11:54:54.168Z,41.68
2019-05-30T11:57:01.827Z,42.32
2019-05-30T11:59:09.284Z,43.37
2019-05-30T12:01:16.829Z,39.63
2019-05-30T12:03:24.471Z,41.74
2019-05-30T12:05:31.883Z,44.75
2019-05-30T12:07:39.501Z,41.98
2019-05-30T12:09:46.989Z,42.69
2019-05-30T12:11:55.184Z,41.28
2019-05-30T12:14:02.832Z,40.46
2019-05-30T12:16:11.543Z,43.67
2019-05-30T12:18:19.040Z,42.40
2019-05-30T12:20:26.958Z,43.21
2019-05-30T12:22:34.434Z,45.28
2019-05-30T12:24:42.051Z,40.72
2019-05-30T12:26:49.466Z,43.57
2019-05-30T12:28:58.064Z,41.95
2019-05-30T12:31:06.776Z,42.80
2019-05-30T12:33:14.528Z,42.62
2019-05-30T12:35:22.218Z,41.52
2019-05-30T12:37:29.901Z,41.97
2019-05-30T12:39:37.516Z,43.51
2019-05-30T12:41:45.083Z,42.36
2019-05-30T12:43:52.995Z,41.77
2019-05-30T12:46:01.254Z,43.14
2019-05-30T12:48:10.026Z,42.97
2019-05-30T12:50:18.384Z,40.22
2019-05-30T12:52:25.877Z,38.65
2019-05-30T12:54:33.423Z,40.42
2019-05-30T12:56:40.850Z,42.33
2019-05-30T12:58:48.346Z,42.73
2019-05-30T13:00:56.645Z,42.80
2019-05-30T13:03:04.446Z,42.34
2019-05-30T13:05:12.410Z,44.17
2019-05-30T13:07:19.937Z,42.75
2019-05-30T13:09:27.597Z,42.96
2019-05-30T13:11:35.108Z,41.21
2019-05-30T13:13:42.997Z,39.73
2019-05-30T13:15:50.625Z,40.89
2019-05-30T13:17:58.846Z,39.57
2019-05-30T13:20:07.850Z,39.80
2019-05-30T13:22:15.469Z,41.38
2019-05-30T13:24:23.277Z,40.13
2019-05-30T13:26:30.936Z,42.44
2019-05-30T13:28:38.650Z,40.60
2019-05-30T13:30:46.204Z,40.95
2019-05-30T13:32:54.547Z,39.56
2019-05-30T13:35:03.161Z,43.01
2019-05-30T13:37:11.303Z,40.54
2019-05-30T13:39:18.845Z,40.38
2019-05-30T13:41:26.445Z,38.62
2019-05-30T13:43:34.079Z,42.62
2019-05-30T13:45:41.900Z,44.82
2019-05-30T13:47:49.332Z,40.83
2019-05-30T13:49:56.736Z,46.01
2019-05-30T13:52:05.167Z,42.10
2019-05-30T13:54:13.169Z,46.46
2019-05-30T13:56:20.673Z,46.62
2019-05-30T13:58:28.082Z,42.16
2019-05-30T14:00:35.644Z,47.39
2019-05-30T14:02:43.974Z,42.83
2019-05-30T14:04:51.579Z,45.62
2019-05-30T14:07:00.047Z,42.99
2019-05-30T14:09:08.684Z,42.67
2019-05-30T14:11:16.099Z,42.05
2019-05-30T14:13:23.669Z,43.03
2019-05-30T14:15:34.099Z,43.20
2019-05-30T14:17:41.668Z,44.24
2019-05-30T14:19:49.187Z,42.38
2019-05-30T14:21:56.767Z,43.04
2019-05-30T14:24:05.311Z,42.60
2019-05-30T14:26:12.899Z,40.24
2019-05-30T14:28:20.341Z,41.43
2019-05-30T14:30:28.297Z,39.74
2019-05-30T14:32:35.846Z,43.56
2019-05-30T14:34:43.371Z,43.31
2019-05-30T14:36:50.862Z,45.03
2019-05-30T14:38:59.148Z,42.22
2019-05-30T14:41:07.121Z,42.37
2019-05-30T14:43:14.674Z,39.62
2019-05-30T14:45:27.637Z,45.45
2019-05-30T14:47:33.731Z,42.33
2019-05-30T14:49:41.158Z,43.94
2019-05-30T14:51:48.639Z,41.41
2019-05-30T14:53:56.254Z,43.42
2019-05-30T14:56:05.001Z,44.11
2019-05-30T14:58:13.367Z,44.60
2019-05-30T15:00:22.628Z,45.14
2019-05-30T15:02:30.477Z,44.05
2019-05-30T15:04:37.953Z,44.68
2019-05-30T15:06:45.547Z,44.36
2019-05-30T15:08:53.030Z,43.69
2019-05-30T15:11:00.588Z,45.62
2019-05-30T15:13:08.221Z,43.52
2019-05-30T15:15:18.751Z,49.28
2019-05-30T15:17:26.666Z,42.40
2019-05-30T15:19:34.099Z,44.16
2019-05-30T15:21:42.881Z,46.21
2019-05-30T15:23:50.340Z,46.84
2019-05-30T15:25:57.837Z,47.90
2019-05-30T15:28:06.008Z,44.68
2019-05-30T15:30:16.889Z,45.80
2019-05-30T15:32:24.633Z,46.95
2019-05-30T15:34:31.968Z,45.37
2019-05-30T15:36:39.405Z,45.45
2019-05-30T15:38:46.843Z,45.14
2019-05-30T15:40:54.265Z,43.81
2019-05-30T15:43:01.765Z,47.01
2019-05-30T15:45:11.928Z,48.17
2019-05-30T15:47:19.629Z,46.00
2019-05-30T15:49:27.155Z,45.31
2019-05-30T15:51:34.773Z,46.83
2019-05-30T15:53:42.319Z,46.45
2019-05-30T15:55:50.700Z,48.01
2019-05-30T15:57:59.136Z,47.78
2019-05-30T16:00:07.875Z,48.03
2019-05-30T16:02:16.122Z,48.02
2019-05-30T16:04:23.655Z,48.36
2019-05-30T16:06:31.177Z,49.32
2019-05-30T16:08:39.043Z,51.20
2019-05-30T16:10:46.588Z,48.68
2019-05-30T16:12:54.080Z,48.50
2019-05-30T16:15:01.628Z,50.23
2019-05-30T16:17:09.711Z,53.06
2019-05-30T16:19:23.319Z,51.69
2019-05-30T16:21:26.649Z,52.33
2019-05-30T16:23:34.464Z,52.26
2019-05-30T16:25:41.920Z,51.25
2019-05-30T16:27:49.915Z,52.04
2019-05-30T16:29:57.737Z,52.65
2019-05-30T16:32:05.434Z,51.70
2019-05-30T16:34:13.959Z,52.57
2019-05-30T16:36:22.502Z,52.20
2019-05-30T16:38:30.333Z,50.36
2019-05-30T16:40:38.117Z,54.24
2019-05-30T16:42:45.774Z,54.51
2019-05-30T16:44:53.570Z,52.35
2019-05-30T16:47:01.248Z,53.42
2019-05-30T16:49:09.187Z,52.28
2019-05-30T16:51:16.715Z,50.51
2019-05-30T16:53:25.881Z,50.88
2019-05-30T16:55:34.381Z,49.73
2019-05-30T16:57:41.927Z,50.03
2019-05-30T16:59:49.628Z,49.38
2019-05-30T17:01:58.500Z,49.61
2019-05-30T17:04:06.587Z,49.08
2019-05-30T17:06:15.809Z,48.51
2019-05-30T17:08:24.444Z,49.03
2019-05-30T17:10:33.364Z,50.32
2019-05-30T17:12:41.061Z,50.02
2019-05-30T17:14:48.678Z,51.02
2019-05-30T17:16:56.462Z,53.04
2019-05-30T17:19:03.954Z,52.25
2019-05-30T17:21:12.059Z,51.17
2019-05-30T17:23:20.628Z,53.01
2019-05-30T17:25:28.514Z,52.38
2019-05-30T17:27:37.125Z,52.83
2019-05-30T17:29:45.154Z,51.05
2019-05-30T17:31:52.831Z,49.94
2019-05-30T17:34:01.972Z,51.15
2019-05-30T17:36:11.974Z,52.85
2019-05-30T17:38:20.389Z,53.55
2019-05-30T17:40:41.225Z,55.30
2019-05-30T17:42:37.932Z,55.11
2019-05-30T17:44:45.607Z,54.09
2019-05-30T17:46:53.302Z,55.29
2019-05-30T17:49:01.103Z,54.01
2019-05-30T17:51:08.639Z,54.31
2019-05-30T17:53:16.267Z,55.76
2019-05-30T17:55:23.957Z,54.57
2019-05-30T17:57:32.084Z,54.86
2019-05-30T17:59:39.595Z,55.06
2019-05-30T18:01:47.234Z,56.12
2019-05-30T18:03:54.806Z,55.26
2019-05-30T18:06:02.507Z,53.98
2019-05-30T18:08:10.301Z,52.12
2019-05-30T18:10:18.345Z,53.40
2019-05-30T18:12:27.029Z,53.62
2019-05-30T18:14:34.737Z,53.73
2019-05-30T18:16:42.380Z,53.95
2019-05-30T18:18:49.856Z,53.45
2019-05-30T18:20:58.622Z,53.43
2019-05-30T18:23:06.657Z,53.76
2019-05-30T18:25:16.676Z,54.60
2019-05-30T18:27:25.851Z,55.07
2019-05-30T18:29:33.746Z,54.70
2019-05-30T18:31:41.371Z,56.98
2019-05-30T18:33:49.064Z,57.25
2019-05-30T18:35:57.022Z,57.72
2019-05-30T18:38:05.146Z,58.22
2019-05-30T18:40:15.060Z,57.14
2019-05-30T18:42:23.170Z,57.52
2019-05-30T18:44:32.814Z,57.34
2019-05-30T18:46:41.371Z,56.13
2019-05-30T18:48:49.561Z,56.93
2019-05-30T18:50:57.403Z,57.31
2019-05-30T18:53:06.100Z,57.31
2019-05-30T18:55:13.822Z,56.72
2019-05-30T18:57:21.884Z,57.01
2019-05-30T18:59:31.088Z,57.62
2019-05-30T19:01:39.503Z,57.17
2019-05-30T19:03:47.401Z,57.17
2019-05-30T19:05:56.330Z,58.23
2019-05-30T19:08:04.291Z,60.15
2019-05-30T19:10:12.130Z,59.89
2019-05-30T19:12:24.093Z,59.47
2019-05-30T19:14:32.478Z,59.04
2019-05-30T19:16:40.205Z,61.54
2019-05-30T19:18:47.897Z,59.87
2019-05-30T19:20:55.633Z,59.91
2019-05-30T19:23:03.649Z,60.83
2019-05-30T19:25:11.943Z,62.38
2019-05-30T19:27:19.686Z,62.63
2019-05-30T19:29:28.890Z,62.66
2019-05-30T19:31:37.050Z,63.06
2019-05-30T19:33:44.975Z,64.10
2019-05-30T19:35:52.569Z,63.04
2019-05-30T19:38:00.566Z,64.52
2019-05-30T19:40:09.529Z,66.30
2019-05-30T19:42:17.422Z,66.37
2019-05-30T19:44:25.240Z,65.18
2019-05-30T19:46:34.225Z,65.20
2019-05-30T19:48:42.268Z,63.70
2019-05-30T19:50:49.948Z,63.64
2019-05-30T19:52:57.607Z,64.19
2019-05-30T19:55:05.648Z,62.91
2019-05-30T19:57:13.163Z,63.44
2019-05-30T19:59:20.874Z,64.22
2019-05-30T20:01:29.692Z,65.04
2019-05-30T20:03:44.784Z,65.39
2019-05-30T20:05:46.770Z,65.28
2019-05-30T20:07:54.526Z,64.54
2019-05-30T20:10:02.243Z,63.77
2019-05-30T20:12:10.036Z,64.52
2019-05-30T20:14:17.641Z,65.54
2019-05-30T20:16:25.286Z,66.35
2019-05-30T20:18:33.550Z,66.70
2019-05-30T20:20:54.197Z,65.42
2019-05-30T20:22:50.916Z,65.82
2019-05-30T20:24:58.453Z,65.93
2019-05-30T20:27:06.182Z,66.94
2019-05-30T20:29:14.189Z,67.09
2019-05-30T20:31:22.138Z,66.05
2019-05-30T20:33:31.092Z,66.31
2019-05-30T20:35:40.073Z,66.97
2019-05-30T20:37:48.176Z,66.46
2019-05-30T20:39:55.790Z,65.98
2019-05-30T20:42:18.191Z,66.89
2019-05-30T20:44:13.213Z,65.60
2019-05-30T20:46:23.502Z,65.76
2019-05-30T20:48:30.347Z,66.72
2019-05-30T20:50:39.103Z,66.76
2019-05-30T20:52:47.653Z,67.29
2019-05-30T20:54:55.430Z,67.79
2019-05-30T20:57:03.176Z,67.99
2019-05-30T20:59:10.780Z,70.15
2019-05-30T21:01:18.407Z,70.04
2019-05-30T21:03:26.668Z,70.07
2019-05-30T21:05:35.663Z,68.82
2019-05-30T21:07:44.601Z,69.31
2019-05-30T21:09:55.063Z,69.55
2019-05-30T21:12:06.404Z,69.51
2019-05-30T21:14:16.528Z,69.00
2019-05-30T21:16:24.490Z,69.46
2019-05-30T21:18:32.242Z,69.49
2019-05-30T21:20:40.061Z,70.47
2019-05-30T21:22:47.743Z,70.15
2019-05-30T21:24:55.453Z,70.54
2019-05-30T21:27:03.096Z,72.33
2019-05-30T21:29:10.816Z,71.99
2019-05-30T21:31:18.470Z,71.96
2019-05-30T21:33:26.016Z,72.63
2019-05-30T21:35:33.846Z,73.01
2019-05-30T21:37:41.779Z,72.49
2019-05-30T21:39:49.496Z,73.34
2019-05-30T21:41:57.002Z,74.71
2019-05-30T21:44:04.660Z,74.29
2019-05-30T21:46:12.108Z,74.78
2019-05-30T21:48:19.654Z,74.25
2019-05-30T21:50:27.146Z,74.46
2019-05-30T21:52:35.787Z,74.04
2019-05-30T21:54:43.822Z,74.04
2019-05-30T21:56:51.469Z,74.82
2019-05-30T21:58:59.063Z,76.11
2019-05-30T22:01:35.039Z,75.25
2019-05-30T22:03:42.799Z,73.99
2019-05-30T22:05:51.960Z,73.78
2019-05-30T22:07:59.621Z,74.12
2019-05-30T22:10:07.752Z,72.46
2019-05-30T22:12:15.509Z,72.88
2019-05-30T22:14:23.109Z,73.22
2019-05-30T22:16:30.480Z,73.65
2019-05-30T22:18:38.176Z,73.21
2019-05-30T22:20:45.884Z,74.25
2019-05-30T22:22:53.431Z,74.56
2019-05-30T22:25:01.025Z,72.77
2019-05-30T22:27:08.530Z,72.17
2019-05-30T22:29:16.083Z,74.32
2019-05-30T22:31:23.630Z,74.17
2019-05-30T22:33:31.116Z,74.34
2019-05-30T22:35:38.854Z,74.11
2019-05-30T22:37:46.825Z,74.94
2019-05-30T22:39:54.827Z,74.52
2019-05-30T22:42:02.919Z,75.70
2019-05-30T22:44:10.637Z,76.36
2019-05-30T22:46:18.083Z,76.61
2019-05-30T22:48:25.698Z,76.11
2019-05-30T22:50:33.244Z,76.72
2019-05-30T22:52:40.711Z,77.87
2019-05-30T22:54:49.107Z,77.74
2019-05-30T22:56:56.687Z,78.42
2019-05-30T22:59:04.250Z,78.01
2019-05-30T23:01:11.704Z,77.05
2019-05-30T23:03:19.238Z,77.82
2019-05-30T23:05:26.739Z,77.92
2019-05-30T23:07:34.175Z,77.88
2019-05-30T23:09:41.727Z,78.16
2019-05-30T23:11:49.692Z,78.06
2019-05-30T23:13:58.308Z,77.60
2019-05-30T23:16:07.250Z,75.73
2019-05-30T23:18:17.437Z,77.55
2019-05-30T23:20:24.868Z,76.67
2019-05-30T23:22:32.502Z,76.55
2019-05-30T23:24:39.904Z,77.35
2019-05-30T23:26:47.478Z,77.54
2019-05-30T23:28:55.849Z,77.42
2019-05-30T23:31:03.271Z,77.64
2019-05-30T23:33:10.702Z,77.95
2019-05-30T23:35:18.316Z,78.72
2019-05-30T23:37:25.727Z,78.67
2019-05-30T23:39:33.147Z,78.96
2019-05-30T23:41:40.630Z,79.10
2019-05-30T23:43:57.968Z,79.62
2019-05-30T23:45:57.538Z,79.12
2019-05-30T23:48:05.274Z,79.58
2019-05-30T23:50:13.436Z,78.97
2019-05-30T23:52:20.842Z,79.98
2019-05-30T23:54:28.418Z,80.06
2019-05-30T23:56:35.972Z,80.33
2019-05-30T23:58:43.490Z,80.22
